sensor_id;sensor_type;location;lat;lon;timestamp;pressure;altitude;pressure_sealevel;temperature;humidity
75627;BME280;67372;49.404;11.034;2023-04-03T00:00:16;98981.13;;;3.85;59.92
75627;BME280;67372;49.404;11.034;2023-04-03T00:02:43;98976.50;;;3.87;59.35
75627;BME280;67372;49.404;11.034;2023-04-03T00:05:10;98966.94;;;3.86;58.71
75627;BME280;67372;49.404;11.034;2023-04-03T00:07:36;98975.53;;;3.88;59.94
75627;BME280;67372;49.404;11.034;2023-04-03T00:10:02;98974.53;;;3.89;60.38
75627;BME280;67372;49.404;11.034;2023-04-03T00:12:29;98968.94;;;3.92;59.94
75627;BME280;67372;49.404;11.034;2023-04-03T00:14:55;98962.53;;;3.94;60.79
75627;BME280;67372;49.404;11.034;2023-04-03T00:17:21;98960.00;;;3.85;59.67
75627;BME280;67372;49.404;11.034;2023-04-03T00:19:48;98962.94;;;3.82;60.49
75627;BME280;67372;49.404;11.034;2023-04-03T00:22:14;98955.72;;;3.84;60.86
75627;BME280;67372;49.404;11.034;2023-04-03T00:24:40;98966.09;;;3.85;60.78
75627;BME280;67372;49.404;11.034;2023-04-03T00:27:07;98966.25;;;3.84;60.58
75627;BME280;67372;49.404;11.034;2023-04-03T00:29:33;98963.16;;;3.88;60.54
75627;BME280;67372;49.404;11.034;2023-04-03T00:31:59;98967.91;;;3.85;60.92
75627;BME280;67372;49.404;11.034;2023-04-03T00:34:26;98966.09;;;3.85;61.77
75627;BME280;67372;49.404;11.034;2023-04-03T00:36:52;98966.09;;;3.85;60.74
75627;BME280;67372;49.404;11.034;2023-04-03T00:39:19;98968.38;;;3.80;61.08
75627;BME280;67372;49.404;11.034;2023-04-03T00:41:45;98965.75;;;3.80;61.45
75627;BME280;67372;49.404;11.034;2023-04-03T00:44:22;98969.13;;;3.73;61.43
75627;BME280;67372;49.404;11.034;2023-04-03T00:47:10;98968.63;;;3.69;60.69
75627;BME280;67372;49.404;11.034;2023-04-03T00:49:38;98968.09;;;3.65;61.94
75627;BME280;67372;49.404;11.034;2023-04-03T00:52:09;98964.78;;;3.63;61.32
75627;BME280;67372;49.404;11.034;2023-04-03T00:54:38;98973.84;;;3.61;61.78
75627;BME280;67372;49.404;11.034;2023-04-03T00:57:06;98973.47;;;3.56;61.77
75627;BME280;67372;49.404;11.034;2023-04-03T00:59:36;98972.25;;;3.50;61.29
75627;BME280;67372;49.404;11.034;2023-04-03T01:02:04;98963.50;;;3.50;61.97
75627;BME280;67372;49.404;11.034;2023-04-03T01:04:34;98966.97;;;3.50;61.54
75627;BME280;67372;49.404;11.034;2023-04-03T01:07:15;98968.31;;;3.54;62.20
75627;BME280;67372;49.404;11.034;2023-04-03T01:09:43;98968.47;;;3.53;62.27
75627;BME280;67372;49.404;11.034;2023-04-03T01:12:17;98966.16;;;3.50;61.41
75627;BME280;67372;49.404;11.034;2023-04-03T01:14:45;98971.94;;;3.53;61.92
75627;BME280;67372;49.404;11.034;2023-04-03T01:20:20;98968.13;;;3.48;62.39
75627;BME280;67372;49.404;11.034;2023-04-03T01:25:41;98973.91;;;3.51;61.25
75627;BME280;67372;49.404;11.034;2023-04-03T01:28:12;98964.19;;;3.52;61.43
75627;BME280;67372;49.404;11.034;2023-04-03T01:30:46;98967.75;;;3.43;61.72
75627;BME280;67372;49.404;11.034;2023-04-03T01:33:14;98971.06;;;3.45;61.42
75627;BME280;67372;49.404;11.034;2023-04-03T01:35:41;98964.59;;;3.39;61.36
75627;BME280;67372;49.404;11.034;2023-04-03T01:38:07;98970.38;;;3.43;61.31
75627;BME280;67372;49.404;11.034;2023-04-03T01:40:33;98973.03;;;3.43;61.33
75627;BME280;67372;49.404;11.034;2023-04-03T01:43:00;98963.47;;;3.42;61.34
75627;BME280;67372;49.404;11.034;2023-04-03T01:45:27;98973.78;;;3.35;60.65
75627;BME280;67372;49.404;11.034;2023-04-03T01:47:53;98970.63;;;3.31;61.31
75627;BME280;67372;49.404;11.034;2023-04-03T01:50:20;98970.91;;;3.28;61.11
75627;BME280;67372;49.404;11.034;2023-04-03T01:52:46;98963.81;;;3.29;61.32
75627;BME280;67372;49.404;11.034;2023-04-03T01:55:13;98965.63;;;3.28;61.08
75627;BME280;67372;49.404;11.034;2023-04-03T01:57:39;98967.44;;;3.28;60.88
75627;BME280;67372;49.404;11.034;2023-04-03T02:00:06;98964.44;;;3.23;61.80
75627;BME280;67372;49.404;11.034;2023-04-03T02:02:32;98973.09;;;3.15;62.05
75627;BME280;67372;49.404;11.034;2023-04-03T02:04:59;98967.00;;;3.15;61.36
75627;BME280;67372;49.404;11.034;2023-04-03T02:07:25;98971.19;;;3.07;62.13
75627;BME280;67372;49.404;11.034;2023-04-03T02:09:51;98974.13;;;3.04;62.63
75627;BME280;67372;49.404;11.034;2023-04-03T02:12:18;98970.44;;;2.97;62.23
75627;BME280;67372;49.404;11.034;2023-04-03T02:14:44;98977.69;;;2.95;62.39
75627;BME280;67372;49.404;11.034;2023-04-03T02:17:10;98964.28;;;2.89;62.53
75627;BME280;67372;49.404;11.034;2023-04-03T02:19:37;98974.81;;;2.89;62.76
75627;BME280;67372;49.404;11.034;2023-04-03T02:22:04;98971.78;;;2.84;63.08
75627;BME280;67372;49.404;11.034;2023-04-03T02:24:31;98971.91;;;2.82;62.74
75627;BME280;67372;49.404;11.034;2023-04-03T02:26:57;98977.91;;;2.84;63.39
75627;BME280;67372;49.404;11.034;2023-04-03T02:29:24;98977.59;;;2.87;62.78
75627;BME280;67372;49.404;11.034;2023-04-03T02:31:50;98980.66;;;2.83;63.36
75627;BME280;67372;49.404;11.034;2023-04-03T02:34:17;98973.94;;;2.70;63.38
75627;BME280;67372;49.404;11.034;2023-04-03T02:36:44;98977.25;;;2.72;63.66
75627;BME280;67372;49.404;11.034;2023-04-03T02:39:10;98977.25;;;2.72;63.86
75627;BME280;67372;49.404;11.034;2023-04-03T02:41:36;98974.78;;;2.71;63.82
75627;BME280;67372;49.404;11.034;2023-04-03T02:44:05;98975.44;;;2.73;63.86
75627;BME280;67372;49.404;11.034;2023-04-03T02:46:32;98972.97;;;2.71;63.77
75627;BME280;67372;49.404;11.034;2023-04-03T02:48:59;98972.00;;;2.72;64.15
75627;BME280;67372;49.404;11.034;2023-04-03T02:51:25;98976.59;;;2.70;64.23
75627;BME280;67372;49.404;11.034;2023-04-03T02:53:51;98984.25;;;2.64;64.45
75627;BME280;67372;49.404;11.034;2023-04-03T02:56:18;98973.88;;;2.62;64.85
75627;BME280;67372;49.404;11.034;2023-04-03T02:58:44;98974.97;;;2.60;65.02
75627;BME280;67372;49.404;11.034;2023-04-03T03:01:11;98973.59;;;2.56;65.84
75627;BME280;67372;49.404;11.034;2023-04-03T03:03:38;98977.59;;;2.60;65.27
75627;BME280;67372;49.404;11.034;2023-04-03T03:06:06;98978.44;;;2.60;65.70
75627;BME280;67372;49.404;11.034;2023-04-03T03:08:34;98981.91;;;2.61;65.44
75627;BME280;67372;49.404;11.034;2023-04-03T03:11:01;98975.66;;;2.62;65.18
75627;BME280;67372;49.404;11.034;2023-04-03T03:13:27;98973.03;;;2.62;65.08
75627;BME280;67372;49.404;11.034;2023-04-03T03:15:53;98982.09;;;2.50;66.65
75627;BME280;67372;49.404;11.034;2023-04-03T03:18:20;98978.09;;;2.45;66.63
75627;BME280;67372;49.404;11.034;2023-04-03T03:20:54;98979.06;;;2.44;66.84
75627;BME280;67372;49.404;11.034;2023-04-03T03:23:22;98976.06;;;2.39;67.09
75627;BME280;67372;49.404;11.034;2023-04-03T03:25:57;98973.41;;;2.39;67.54
75627;BME280;67372;49.404;11.034;2023-04-03T03:28:24;98970.09;;;2.37;67.68
75627;BME280;67372;49.404;11.034;2023-04-03T03:30:51;98969.38;;;2.35;67.52
75627;BME280;67372;49.404;11.034;2023-04-03T03:33:17;98967.59;;;2.36;68.15
75627;BME280;67372;49.404;11.034;2023-04-03T03:35:44;98970.38;;;2.34;67.75
75627;BME280;67372;49.404;11.034;2023-04-03T03:38:10;98968.72;;;2.33;68.07
75627;BME280;67372;49.404;11.034;2023-04-03T03:40:37;98970.66;;;2.31;68.02
75627;BME280;67372;49.404;11.034;2023-04-03T03:43:03;98977.56;;;2.32;67.42
75627;BME280;67372;49.404;11.034;2023-04-03T03:45:29;98969.00;;;2.30;67.85
75627;BME280;67372;49.404;11.034;2023-04-03T03:47:56;98971.47;;;2.32;67.89
75627;BME280;67372;49.404;11.034;2023-04-03T03:50:23;98966.38;;;2.30;68.32
75627;BME280;67372;49.404;11.034;2023-04-03T03:52:49;98978.56;;;2.31;68.31
75627;BME280;67372;49.404;11.034;2023-04-03T03:55:15;98977.88;;;2.29;69.09
75627;BME280;67372;49.404;11.034;2023-04-03T03:57:42;98978.84;;;2.28;68.75
75627;BME280;67372;49.404;11.034;2023-04-03T04:00:09;98978.69;;;2.30;68.69
75627;BME280;67372;49.404;11.034;2023-04-03T04:02:35;98974.94;;;2.32;68.61
75627;BME280;67372;49.404;11.034;2023-04-03T04:05:02;98974.13;;;2.32;69.17
75627;BME280;67372;49.404;11.034;2023-04-03T04:07:29;98973.97;;;2.33;69.11
75627;BME280;67372;49.404;11.034;2023-04-03T04:09:55;98977.72;;;2.31;69.76
75627;BME280;67372;49.404;11.034;2023-04-03T04:12:21;98977.56;;;2.32;69.65
75627;BME280;67372;49.404;11.034;2023-04-03T04:14:48;98979.09;;;2.35;69.82
75627;BME280;67372;49.404;11.034;2023-04-03T04:17:14;98980.63;;;2.37;69.85
75627;BME280;67372;49.404;11.034;2023-04-03T04:19:40;98982.44;;;2.37;70.60
75627;BME280;67372;49.404;11.034;2023-04-03T04:22:07;98978.69;;;2.39;70.41
75627;BME280;67372;49.404;11.034;2023-04-03T04:24:33;98965.53;;;2.39;70.31
75627;BME280;67372;49.404;11.034;2023-04-03T04:26:59;98979.66;;;2.38;70.40
75627;BME280;67372;49.404;11.034;2023-04-03T04:29:26;98977.41;;;2.43;70.46
75627;BME280;67372;49.404;11.034;2023-04-03T04:31:52;98976.19;;;2.38;71.21
75627;BME280;67372;49.404;11.034;2023-04-03T04:34:28;98974.94;;;2.42;71.06
75627;BME280;67372;49.404;11.034;2023-04-03T04:37:04;98981.03;;;2.42;71.23
75627;BME280;67372;49.404;11.034;2023-04-03T04:39:31;98984.63;;;2.41;70.72
75627;BME280;67372;49.404;11.034;2023-04-03T04:41:57;98979.75;;;2.46;70.03
75627;BME280;67372;49.404;11.034;2023-04-03T04:44:23;98985.16;;;2.45;70.56
75627;BME280;67372;49.404;11.034;2023-04-03T04:46:50;98981.41;;;2.47;70.64
75627;BME280;67372;49.404;11.034;2023-04-03T04:49:16;98991.84;;;2.39;71.20
75627;BME280;67372;49.404;11.034;2023-04-03T04:51:43;98985.34;;;2.34;71.23
75627;BME280;67372;49.404;11.034;2023-04-03T04:54:17;98989.53;;;2.27;71.71
75627;BME280;67372;49.404;11.034;2023-04-03T04:56:44;98989.38;;;2.28;71.67
75627;BME280;67372;49.404;11.034;2023-04-03T04:59:10;99003.13;;;2.22;71.92
75627;BME280;67372;49.404;11.034;2023-04-03T05:01:36;98998.00;;;2.21;71.33
75627;BME280;67372;49.404;11.034;2023-04-03T05:04:03;98994.41;;;2.22;72.48
75627;BME280;67372;49.404;11.034;2023-04-03T05:06:29;99006.44;;;2.24;71.79
75627;BME280;67372;49.404;11.034;2023-04-03T05:08:56;99000.72;;;2.29;72.56
75627;BME280;67372;49.404;11.034;2023-04-03T05:11:22;99003.91;;;2.32;71.99
75627;BME280;67372;49.404;11.034;2023-04-03T05:13:50;99002.09;;;2.33;72.27
75627;BME280;67372;49.404;11.034;2023-04-03T05:16:16;99000.44;;;2.32;71.88
75627;BME280;67372;49.404;11.034;2023-04-03T05:18:43;99006.53;;;2.32;71.86
75627;BME280;67372;49.404;11.034;2023-04-03T05:21:09;99005.72;;;2.32;72.06
75627;BME280;67372;49.404;11.034;2023-04-03T05:23:35;99006.38;;;2.34;72.16
75627;BME280;67372;49.404;11.034;2023-04-03T05:26:02;99007.91;;;2.36;72.38
75627;BME280;67372;49.404;11.034;2023-04-03T05:28:28;99012.34;;;2.36;72.00
75627;BME280;67372;49.404;11.034;2023-04-03T05:30:56;99004.03;;;2.40;71.50
75627;BME280;67372;49.404;11.034;2023-04-03T05:33:23;99015.50;;;2.49;71.45
75627;BME280;67372;49.404;11.034;2023-04-03T05:35:50;99019.63;;;2.52;71.68
75627;BME280;67372;49.404;11.034;2023-04-03T05:38:19;99016.69;;;2.55;71.25
75627;BME280;67372;49.404;11.034;2023-04-03T05:40:46;99022.66;;;2.57;71.07
75627;BME280;67372;49.404;11.034;2023-04-03T05:43:13;99014.88;;;2.65;70.37
75627;BME280;67372;49.404;11.034;2023-04-03T05:45:39;99023.53;;;2.75;70.57
75627;BME280;67372;49.404;11.034;2023-04-03T05:48:05;99025.44;;;2.83;70.15
75627;BME280;67372;49.404;11.034;2023-04-03T05:50:32;99022.63;;;2.94;70.06
75627;BME280;67372;49.404;11.034;2023-04-03T05:52:59;99024.97;;;2.97;69.49
75627;BME280;67372;49.404;11.034;2023-04-03T05:55:26;99023.44;;;2.94;69.65
75627;BME280;67372;49.404;11.034;2023-04-03T05:57:52;99030.91;;;2.99;69.35
75627;BME280;67372;49.404;11.034;2023-04-03T06:00:19;99032.13;;;3.04;69.77
75627;BME280;67372;49.404;11.034;2023-04-03T06:02:45;99035.38;;;3.16;69.60
75627;BME280;67372;49.404;11.034;2023-04-03T06:05:12;99040.84;;;3.32;68.46
75627;BME280;67372;49.404;11.034;2023-04-03T06:07:38;99036.69;;;3.48;69.18
75627;BME280;67372;49.404;11.034;2023-04-03T06:10:05;99044.00;;;3.54;69.02
75627;BME280;67372;49.404;11.034;2023-04-03T06:12:32;99037.16;;;3.61;68.27
75627;BME280;67372;49.404;11.034;2023-04-03T06:14:58;99043.09;;;3.63;68.21
75627;BME280;67372;49.404;11.034;2023-04-03T06:17:25;99041.81;;;3.67;67.94
75627;BME280;67372;49.404;11.034;2023-04-03T06:19:51;99043.31;;;3.52;67.42
75627;BME280;67372;49.404;11.034;2023-04-03T06:22:17;99041.06;;;3.57;67.90
75627;BME280;67372;49.404;11.034;2023-04-03T06:24:43;99044.81;;;3.54;66.77
75627;BME280;67372;49.404;11.034;2023-04-03T06:27:10;99046.72;;;3.44;67.19
75627;BME280;67372;49.404;11.034;2023-04-03T06:29:37;99050.31;;;3.43;67.29
75627;BME280;67372;49.404;11.034;2023-04-03T06:32:03;99051.22;;;3.52;67.19
75627;BME280;67372;49.404;11.034;2023-04-03T06:34:30;99056.91;;;3.57;66.61
75627;BME280;67372;49.404;11.034;2023-04-03T06:36:56;99052.47;;;3.57;66.81
75627;BME280;67372;49.404;11.034;2023-04-03T06:39:22;99054.34;;;3.65;66.82
75627;BME280;67372;49.404;11.034;2023-04-03T06:41:50;99044.09;;;3.62;66.66
75627;BME280;67372;49.404;11.034;2023-04-03T06:44:16;99054.00;;;3.50;67.19
75627;BME280;67372;49.404;11.034;2023-04-03T06:46:44;99054.16;;;3.49;67.20
75627;BME280;67372;49.404;11.034;2023-04-03T06:49:10;99055.38;;;3.54;67.01
75627;BME280;67372;49.404;11.034;2023-04-03T06:51:37;99061.94;;;3.68;66.75
75627;BME280;67372;49.404;11.034;2023-04-03T06:54:05;99060.59;;;3.64;65.91
75627;BME280;67372;49.404;11.034;2023-04-03T06:56:31;99064.72;;;3.66;66.48
75627;BME280;67372;49.404;11.034;2023-04-03T06:58:58;99064.41;;;3.69;66.37
75627;BME280;67372;49.404;11.034;2023-04-03T07:01:26;99062.25;;;3.83;66.07
75627;BME280;67372;49.404;11.034;2023-04-03T07:03:53;99074.97;;;3.87;65.67
75627;BME280;67372;49.404;11.034;2023-04-03T07:06:19;99074.50;;;3.92;68.02
75627;BME280;67372;49.404;11.034;2023-04-03T07:08:45;99072.47;;;4.04;69.66
75627;BME280;67372;49.404;11.034;2023-04-03T07:11:12;99082.31;;;4.19;65.09
75627;BME280;67372;49.404;11.034;2023-04-03T07:13:38;99086.16;;;4.25;65.73
75627;BME280;67372;49.404;11.034;2023-04-03T07:16:05;99088.88;;;4.15;63.62
75627;BME280;67372;49.404;11.034;2023-04-03T07:18:33;99088.78;;;4.25;63.91
75627;BME280;67372;49.404;11.034;2023-04-03T07:20:59;99089.56;;;4.17;64.05
75627;BME280;67372;49.404;11.034;2023-04-03T07:23:26;99091.53;;;4.15;63.37
75627;BME280;67372;49.404;11.034;2023-04-03T07:25:53;99092.19;;;4.17;63.71
75627;BME280;67372;49.404;11.034;2023-04-03T07:28:20;99097.75;;;4.06;63.71
75627;BME280;67372;49.404;11.034;2023-04-03T07:30:59;99096.97;;;4.14;63.08
75627;BME280;67372;49.404;11.034;2023-04-03T07:33:25;99094.84;;;4.17;62.52
75627;BME280;67372;49.404;11.034;2023-04-03T07:35:52;99096.72;;;4.25;63.24
75627;BME280;67372;49.404;11.034;2023-04-03T07:38:18;99099.28;;;4.35;62.28
75627;BME280;67372;49.404;11.034;2023-04-03T07:40:49;99096.84;;;4.41;62.54
75627;BME280;67372;49.404;11.034;2023-04-03T07:43:17;99099.31;;;4.69;61.92
75627;BME280;67372;49.404;11.034;2023-04-03T07:45:44;99095.22;;;4.48;60.46
75627;BME280;67372;49.404;11.034;2023-04-03T07:48:11;99117.97;;;4.41;60.63
75627;BME280;67372;49.404;11.034;2023-04-03T07:50:41;99106.06;;;4.37;60.74
75627;BME280;67372;49.404;11.034;2023-04-03T07:53:08;99106.41;;;4.42;59.89
75627;BME280;67372;49.404;11.034;2023-04-03T07:55:34;99107.59;;;4.48;59.95
75627;BME280;67372;49.404;11.034;2023-04-03T07:58:02;99109.84;;;4.60;59.21
75627;BME280;67372;49.404;11.034;2023-04-03T08:00:28;99097.59;;;4.85;59.80
75627;BME280;67372;49.404;11.034;2023-04-03T08:02:54;99102.91;;;4.93;59.58
75627;BME280;67372;49.404;11.034;2023-04-03T08:05:21;99107.03;;;4.88;57.96
75627;BME280;67372;49.404;11.034;2023-04-03T08:07:48;99104.94;;;5.00;58.95
75627;BME280;67372;49.404;11.034;2023-04-03T08:10:14;99109.75;;;5.04;58.54
75627;BME280;67372;49.404;11.034;2023-04-03T08:12:41;99110.41;;;5.06;57.32
75627;BME280;67372;49.404;11.034;2023-04-03T08:15:08;99117.53;;;5.06;55.90
75627;BME280;67372;49.404;11.034;2023-04-03T08:17:34;99121.00;;;5.06;57.07
75627;BME280;67372;49.404;11.034;2023-04-03T08:20:03;99115.25;;;5.19;57.80
75627;BME280;67372;49.404;11.034;2023-04-03T08:22:29;99115.19;;;5.45;56.25
75627;BME280;67372;49.404;11.034;2023-04-03T08:24:56;99113.75;;;5.67;55.75
75627;BME280;67372;49.404;11.034;2023-04-03T08:27:25;99119.28;;;5.90;56.52
75627;BME280;67372;49.404;11.034;2023-04-03T08:29:52;99118.13;;;6.08;53.94
75627;BME280;67372;49.404;11.034;2023-04-03T08:32:18;99124.69;;;5.88;53.59
75627;BME280;67372;49.404;11.034;2023-04-03T08:34:45;99121.22;;;5.88;54.41
75627;BME280;67372;49.404;11.034;2023-04-03T08:37:11;99116.09;;;5.86;54.20
75627;BME280;67372;49.404;11.034;2023-04-03T08:39:37;99112.94;;;5.74;53.61
75627;BME280;67372;49.404;11.034;2023-04-03T08:42:14;99120.72;;;5.84;54.11
75627;BME280;67372;49.404;11.034;2023-04-03T08:47:28;99114.66;;;5.92;52.03
75627;BME280;67372;49.404;11.034;2023-04-03T08:49:59;99123.84;;;5.63;51.71
75627;BME280;67372;49.404;11.034;2023-04-03T08:52:36;99121.50;;;5.60;52.52
75627;BME280;67372;49.404;11.034;2023-04-03T08:55:07;99126.75;;;5.44;53.04
75627;BME280;67372;49.404;11.034;2023-04-03T08:57:41;99125.97;;;5.09;53.90
75627;BME280;67372;49.404;11.034;2023-04-03T09:00:19;99125.31;;;5.15;53.78
75627;BME280;67372;49.404;11.034;2023-04-03T09:02:48;99126.09;;;5.00;53.65
75627;BME280;67372;49.404;11.034;2023-04-03T09:05:20;99129.41;;;5.02;53.12
75627;BME280;67372;49.404;11.034;2023-04-03T09:08:02;99121.94;;;5.31;51.95
75627;BME280;67372;49.404;11.034;2023-04-03T09:10:33;99115.97;;;5.37;51.91
75627;BME280;67372;49.404;11.034;2023-04-03T09:13:10;99131.84;;;5.37;50.32
75627;BME280;67372;49.404;11.034;2023-04-03T09:15:40;99124.06;;;5.28;49.88
75627;BME280;67372;49.404;11.034;2023-04-03T09:18:29;99133.16;;;5.33;50.44
75627;BME280;67372;49.404;11.034;2023-04-03T09:21:13;99136.72;;;5.50;50.02
75627;BME280;67372;49.404;11.034;2023-04-03T09:23:51;99133.09;;;5.59;49.43
75627;BME280;67372;49.404;11.034;2023-04-03T09:26:29;99146.91;;;5.37;48.63
75627;BME280;67372;49.404;11.034;2023-04-03T09:29:00;99143.44;;;5.36;50.03
75627;BME280;67372;49.404;11.034;2023-04-03T09:31:30;99132.53;;;5.39;50.61
75627;BME280;67372;49.404;11.034;2023-04-03T09:34:01;99141.84;;;5.60;49.34
75627;BME280;67372;49.404;11.034;2023-04-03T09:36:43;99131.59;;;5.65;49.18
75627;BME280;67372;49.404;11.034;2023-04-03T09:39:22;99131.97;;;5.70;49.39
75627;BME280;67372;49.404;11.034;2023-04-03T09:42:04;99133.44;;;5.64;50.22
75627;BME280;67372;49.404;11.034;2023-04-03T09:46:59;99135.63;;;5.69;48.71
75627;BME280;67372;49.404;11.034;2023-04-03T09:49:42;99134.16;;;5.91;48.84
75627;BME280;67372;49.404;11.034;2023-04-03T09:52:22;99131.66;;;5.89;48.44
75627;BME280;67372;49.404;11.034;2023-04-03T09:54:49;99124.56;;;5.90;48.52
75627;BME280;67372;49.404;11.034;2023-04-03T09:57:16;99127.41;;;6.04;47.11
75627;BME280;67372;49.404;11.034;2023-04-03T09:59:58;99135.34;;;6.04;46.85
75627;BME280;67372;49.404;11.034;2023-04-03T10:02:41;99132.50;;;5.90;46.20
75627;BME280;67372;49.404;11.034;2023-04-03T10:07:52;99137.59;;;5.75;45.64
75627;BME280;67372;49.404;11.034;2023-04-03T10:10:28;99134.47;;;5.79;46.12
75627;BME280;67372;49.404;11.034;2023-04-03T10:15:40;99133.69;;;5.95;46.32
75627;BME280;67372;49.404;11.034;2023-04-03T10:18:32;99125.25;;;6.32;46.83
75627;BME280;67372;49.404;11.034;2023-04-03T10:21:20;99122.59;;;6.49;44.76
75627;BME280;67372;49.404;11.034;2023-04-03T10:24:20;99126.72;;;6.75;44.49
75627;BME280;67372;49.404;11.034;2023-04-03T10:26:58;99127.84;;;6.81;43.44
75627;BME280;67372;49.404;11.034;2023-04-03T10:34:53;99118.97;;;6.50;42.42
75627;BME280;67372;49.404;11.034;2023-04-03T10:37:33;99117.16;;;6.26;43.12
75627;BME280;67372;49.404;11.034;2023-04-03T10:46:09;99114.06;;;6.94;43.38
75627;BME280;67372;49.404;11.034;2023-04-03T10:49:22;99107.59;;;6.96;40.91
75627;BME280;67372;49.404;11.034;2023-04-03T10:52:00;99102.44;;;7.03;42.30
75627;BME280;67372;49.404;11.034;2023-04-03T10:54:38;99096.19;;;7.27;41.03
75627;BME280;67372;49.404;11.034;2023-04-03T10:57:10;99098.03;;;7.26;41.46
75627;BME280;67372;49.404;11.034;2023-04-03T10:59:47;99089.41;;;7.24;42.00
75627;BME280;67372;49.404;11.034;2023-04-03T11:02:28;99085.41;;;7.28;40.79
75627;BME280;67372;49.404;11.034;2023-04-03T11:05:02;99086.09;;;7.22;40.77
75627;BME280;67372;49.404;11.034;2023-04-03T11:07:37;99085.75;;;7.25;41.40
75627;BME280;67372;49.404;11.034;2023-04-03T11:10:19;99083.03;;;7.11;39.89
75627;BME280;67372;49.404;11.034;2023-04-03T11:12:51;99075.38;;;7.07;39.93
75627;BME280;67372;49.404;11.034;2023-04-03T11:15:20;99069.53;;;7.20;40.47
75627;BME280;67372;49.404;11.034;2023-04-03T11:17:53;99057.56;;;7.24;40.24
75627;BME280;67372;49.404;11.034;2023-04-03T11:20:28;99072.28;;;7.35;39.72
75627;BME280;67372;49.404;11.034;2023-04-03T11:23:26;99062.91;;;7.47;40.21
75627;BME280;67372;49.404;11.034;2023-04-03T11:26:10;99067.28;;;7.40;40.02
75627;BME280;67372;49.404;11.034;2023-04-03T11:28:37;99068.34;;;7.23;39.70
75627;BME280;67372;49.404;11.034;2023-04-03T11:31:15;99066.00;;;7.28;39.93
75627;BME280;67372;49.404;11.034;2023-04-03T11:33:55;99063.66;;;7.33;39.67
75627;BME280;67372;49.404;11.034;2023-04-03T11:36:39;99060.34;;;7.31;39.06
75627;BME280;67372;49.404;11.034;2023-04-03T11:39:17;99059.91;;;7.50;39.83
75627;BME280;67372;49.404;11.034;2023-04-03T11:41:45;99054.50;;;7.66;39.32
75627;BME280;67372;49.404;11.034;2023-04-03T11:44:41;99054.69;;;7.88;38.62
75627;BME280;67372;49.404;11.034;2023-04-03T11:47:09;99052.59;;;7.98;38.32
75627;BME280;67372;49.404;11.034;2023-04-03T11:49:56;99048.38;;;7.89;36.95
75627;BME280;67372;49.404;11.034;2023-04-03T12:05:54;99040.09;;;7.38;37.44
75627;BME280;67372;49.404;11.034;2023-04-03T12:16:32;99030.22;;;7.92;34.94
75627;BME280;67372;49.404;11.034;2023-04-03T12:19:13;99013.09;;;8.32;37.38
75627;BME280;67372;49.404;11.034;2023-04-03T12:22:07;99020.94;;;8.34;35.78
75627;BME280;67372;49.404;11.034;2023-04-03T12:24:40;99001.25;;;8.06;33.33
75627;BME280;67372;49.404;11.034;2023-04-03T12:35:26;99008.25;;;7.61;34.91
75627;BME280;67372;49.404;11.034;2023-04-03T12:41:03;98995.53;;;7.71;36.75
75627;BME280;67372;49.404;11.034;2023-04-03T12:43:47;98997.34;;;7.93;38.07
75627;BME280;67372;49.404;11.034;2023-04-03T12:46:21;98993.03;;;7.92;37.47
75627;BME280;67372;49.404;11.034;2023-04-03T12:48:51;98996.56;;;7.70;37.82
75627;BME280;67372;49.404;11.034;2023-04-03T12:51:30;98987.38;;;7.58;37.89
75627;BME280;67372;49.404;11.034;2023-04-03T12:54:16;98992.34;;;7.53;38.05
75627;BME280;67372;49.404;11.034;2023-04-03T12:56:45;98984.34;;;7.38;38.66
75627;BME280;67372;49.404;11.034;2023-04-03T12:59:23;98989.25;;;7.49;38.38
75627;BME280;67372;49.404;11.034;2023-04-03T13:01:54;98982.72;;;7.75;38.26
75627;BME280;67372;49.404;11.034;2023-04-03T13:04:21;98980.69;;;7.99;37.27
75627;BME280;67372;49.404;11.034;2023-04-03T13:06:48;98984.72;;;7.95;37.69
75627;BME280;67372;49.404;11.034;2023-04-03T13:09:26;98988.78;;;8.06;38.57
75627;BME280;67372;49.404;11.034;2023-04-03T13:11:58;98983.47;;;7.68;37.60
75627;BME280;67372;49.404;11.034;2023-04-03T13:14:27;98981.91;;;7.74;38.19
75627;BME280;67372;49.404;11.034;2023-04-03T13:16:58;98981.88;;;7.59;38.46
75627;BME280;67372;49.404;11.034;2023-04-03T13:19:27;98985.03;;;7.55;38.15
75627;BME280;67372;49.404;11.034;2023-04-03T13:22:06;98975.56;;;7.60;37.94
75627;BME280;67372;49.404;11.034;2023-04-03T13:24:37;98983.84;;;7.80;38.31
75627;BME280;67372;49.404;11.034;2023-04-03T13:27:04;98974.16;;;7.87;38.01
75627;BME280;67372;49.404;11.034;2023-04-03T13:29:34;98973.72;;;7.98;37.49
75627;BME280;67372;49.404;11.034;2023-04-03T13:32:03;98965.94;;;7.97;37.87
75627;BME280;67372;49.404;11.034;2023-04-03T13:34:40;98970.88;;;8.00;38.69
75627;BME280;67372;49.404;11.034;2023-04-03T13:37:07;98975.88;;;7.80;38.54
75627;BME280;67372;49.404;11.034;2023-04-03T13:39:45;98970.31;;;7.90;38.78
75627;BME280;67372;49.404;11.034;2023-04-03T13:42:25;98969.44;;;7.75;38.31
75627;BME280;67372;49.404;11.034;2023-04-03T13:45:24;98968.56;;;7.82;39.25
75627;BME280;67372;49.404;11.034;2023-04-03T13:47:52;98968.84;;;7.87;39.10
75627;BME280;67372;49.404;11.034;2023-04-03T13:50:25;98971.56;;;7.79;37.76
75627;BME280;67372;49.404;11.034;2023-04-03T13:53:00;98975.88;;;7.80;38.23
75627;BME280;67372;49.404;11.034;2023-04-03T13:55:30;98967.72;;;8.19;38.68
75627;BME280;67372;49.404;11.034;2023-04-03T14:00:51;98958.84;;;8.42;38.48
75627;BME280;67372;49.404;11.034;2023-04-03T14:03:22;98965.75;;;8.36;37.78
75627;BME280;67372;49.404;11.034;2023-04-03T14:05:49;98970.09;;;8.14;37.70
75627;BME280;67372;49.404;11.034;2023-04-03T14:08:17;98970.41;;;7.82;38.05
75627;BME280;67372;49.404;11.034;2023-04-03T14:10:52;98966.78;;;7.75;38.71
75627;BME280;67372;49.404;11.034;2023-04-03T14:13:19;98965.59;;;7.62;38.85
75627;BME280;67372;49.404;11.034;2023-04-03T14:15:47;98954.13;;;7.62;38.73
75627;BME280;67372;49.404;11.034;2023-04-03T14:18:16;98957.19;;;7.74;39.20